Detalii statie AGROSTAR [00001CEF]

Toti senzorii

Date Temperatura solului [C]Precipitatii [mm]Voltaj baterie [mV]HC Air temperature [C]HC Relative humidity [%]Punctul de roua [C]
medieminmaxsumaultimamedieminmaxmediemediemin
2019-02-21 01:00:00 2.3 2.2 2.5 0 6738 -1.87 -2.35 -1.22 99.43 -1.8 -2.5
2019-02-21 02:00:00 2.2 2.1 2.4 0 6738 -2.07 -3.07 -1.21 100 -1.9 -2.9
2019-02-21 03:00:00 2.1 2 2.2 0 6728 -1.69 -2.27 -1.47 100 -1.5 -2.1
2019-02-21 04:00:00 2 2 2.1 0 6728 -1.36 -1.56 -1.11 100 -1.2 -1.4
2019-02-21 05:00:00 2 1.9 2.2 0 6728 -1.23 -1.46 -1.04 100 -1 -1.3
2019-02-21 06:00:00 1.9 1.8 2 0 6718 -1.1 -1.23 -0.99 100 -0.9 -1.1
2019-02-21 07:00:00 1.8 1.8 2.1 0 6718 -0.91 -1.07 -0.79 100 -0.7 -0.9
2019-02-21 08:00:00 1.8 1.7 1.9 0 6728 -0.68 -0.85 -0.52 100 -0.5 -0.7
2019-02-21 09:00:00 1.7 1.6 2 0 6776 -0.04 -0.53 0.41 100 0 -0.4
2019-02-21 10:00:00 1.7 1.6 1.8 0 6864 0.91 0.4 1.43 99.07 0.7 0.4
2019-02-21 11:00:00 1.7 1.7 1.8 0 7246 3.15 1.78 4.4 82.86 0.3 -0.7
2019-02-21 12:00:00 1.7 1.7 1.9 0 7264 4.9 4.47 5.16 61.7 -1.8 -2.3
2019-02-21 13:00:00 1.9 1.8 2.1 0 7284 6.13 5.15 7.19 55.01 -2.2 -3
2019-02-21 14:00:00 2 1.9 2.2 0 7274 7.02 6.78 7.25 49.69 -2.8 -3.3
2019-02-21 15:00:00 2.2 2 2.4 0.2 7236 7.29 7.1 7.44 45.03 -3.8 -4.3
2019-02-21 16:00:00 2.5 2.3 2.6 0 7196 6.91 6.49 7.11 45.31 -4.2 -4.5
2019-02-21 17:00:00 2.6 2.5 2.8 0 7060 6.01 5.72 6.39 48.65 -4 -4.2
2019-02-21 18:00:00 2.7 2.6 2.9 0 6942 5.38 4.99 5.66 51.69 -3.7 -3.9
2019-02-21 19:00:00 2.8 2.8 3 0 6854 4.15 3.58 4.74 57.15 -3.6 -3.8
2019-02-21 20:00:00 2.8 2.7 3 0 6806 3.77 3.56 4.04 58.83 -3.5 -3.7
2019-02-21 21:00:00 2.9 2.9 3 0 6786 3 2.72 3.62 65.47 -2.8 -3.1
2019-02-21 22:00:00 2.9 2.8 3 0 6766 2.58 2.36 2.85 69.17 -2.5 -2.7
2019-02-21 23:00:00 2.8 2.7 2.9 0 6766 2.15 2.02 2.31 72.41 -2.3 -2.6
2019-02-22 00:00:00 2.7 2.6 2.8 0 6756 1.96 1.66 2.45 75.25 -1.9 -2.1
2019-02-22 01:00:00 2.8 2.7 2.9 0 6738 1.75 1.5 2.06 77.87 -1.7 -2
2019-02-22 02:00:00 2.7 2.6 2.8 0 6738 1.67 1.48 2.01 80.12 -1.3 -1.6
2019-02-22 03:00:00 2.6 2.6 2.8 0 6728 1.5 1.29 1.76 82.03 -1.2 -1.6
2019-02-22 04:00:00 2.6 2.5 2.9 0.2 6728 0.97 0.53 1.27 92.66 -0.1 -0.6
2019-02-22 05:00:00 2.5 2.5 2.6 0 6728 0.19 0.01 0.43 99.56 0 0
2019-02-22 06:00:00 2.5 2.4 2.6 0 6728 0.05 0.02 0.08 100 0 0
2019-02-22 07:00:00 2.4 2.4 2.6 0 6728 0.05 0.02 0.07 100 0 0
2019-02-22 08:00:00 2.4 2.3 2.5 0 6718 0.04 0.02 0.1 100 0 0
2019-02-22 09:00:00 2.3 2.2 2.5 0 6718 0.22 0.11 0.37 100 0.1 0.1
2019-02-22 10:00:00 2.3 2.2 2.4 0.4 6796 0.56 0.4 0.74 100 0.5 0.4
2019-02-22 11:00:00 2.2 2 2.4 0 6904 0.74 0.64 0.84 100 0.6 0.6
2019-02-22 12:00:00 2.3 2.2 2.4 1.4 7294 1.15 0.93 1.41 100 1.1 0.9
2019-02-22 13:00:00 2.2 2.2 2.3 1.4 7284 1.45 1.2 1.69 99.95 1.4 1.2
2019-02-22 14:00:00 2.2 2.1 2.3 0.6 7070 1.42 1.15 1.58 99.8 1.3 1.1
2019-02-22 15:00:00 2.3 2.2 2.5 0.4 7060 0.61 0.23 1.23 83.25 -2 -4
2019-02-22 16:00:00 2.3 2.3 2.4 0.2 7020 0.08 0.03 0.23 69.3 -4.8 -6.1
2019-02-22 17:00:00 2.3 2.2 2.4 0.2 7010 -0.35 -1.14 0.13 59.47 -7.2 -8.4
2019-02-22 18:00:00 2.2 2.2 2.4 0 6894 -2.08 -2.97 -1.23 52.63 -10.4 -13
2019-02-22 19:00:00 2.2 2.1 2.3 0 6816 -3.74 -4.47 -3.09 47.48 -13.2 -14.4
2019-02-22 20:00:00 2 2 2.2 0 6766 -5.02 -5.47 -4.56 45.31 -14.9 -15.4
2019-02-22 21:00:00 1.9 1.8 2 0 6748 -5.74 -5.99 -5.49 45.08 -15.6 -17
2019-02-22 22:00:00 1.8 1.7 1.9 0 6728 -5.84 -6.03 -5.65 39.67 -17.3 -17.8
2019-02-22 23:00:00 1.7 1.6 1.9 0 6718 -6.36 -6.84 -5.94 42.13 -17.1 -17.6
2019-02-23 00:00:00 1.6 1.6 1.7 0 6708 -6.05 -6.24 -5.77 40.46 -17.3 -17.6